Time;durP1;ratioP1;P1;durP2;ratioP2;P2;SDS_P1;SDS_P2;PMS_P1;PMS_P2;Temp;Humidity;BMP_temperature;BMP_pressure;BME280_temperature;BME280_humidity;BME280_pressure;Samples;Min_cycle;Max_cycle;Signal;HPM_P1;HPM_P2
2022/11/06 00:01:29;;;;;;;10.57;4.45;;;10.20;99.90;;;;;;4898575;29;20492;-81
2022/11/06 00:03:55;;;;;;;;;;;10.20;99.90;;;;;;4900629;29;20044;-81
2022/11/06 00:09:07;;;;;;;6.13;3.83;;;10.20;99.90;;;;;;4899918;29;20195;-81
2022/11/06 00:11:33;;;;;;;6.30;3.80;;;10.10;99.90;;;;;;4900516;29;20052;-81
2022/11/06 00:14:00;;;;;;;7.35;4.03;;;10.00;99.90;;;;;;4900417;29;20098;-82
2022/11/06 00:16:26;;;;;;;7.13;3.70;;;10.20;99.90;;;;;;4900022;29;20130;-81
2022/11/06 00:18:52;;;;;;;6.28;3.63;;;10.10;99.90;;;;;;4899471;29;20513;-81
2022/11/06 00:21:24;;;;;;;6.72;4.18;;;10.10;99.90;;;;;;4899515;29;20067;-81
2022/11/06 00:23:51;;;;;;;7.00;3.92;;;9.80;99.90;;;;;;4899659;29;20040;-82
2022/11/06 00:26:22;;;;;;;5.65;3.60;;;9.90;99.90;;;;;;4885017;29;20055;-80
2022/11/06 00:28:48;;;;;;;7.53;4.45;;;9.90;99.90;;;;;;4899657;29;20131;-82
2022/11/06 00:31:19;;;;;;;7.07;4.20;;;9.70;99.90;;;;;;4899559;29;20104;-81
2022/11/06 00:33:46;;;;;;;7.85;4.55;;;10.00;99.90;;;;;;4899847;29;20048;-80
2022/11/06 00:36:17;;;;;;;6.47;4.80;;;9.70;99.90;;;;;;4900176;29;20059;-82
2022/11/06 00:38:43;;;;;;;6.85;4.10;;;9.40;99.90;;;;;;4899485;29;20116;-81
2022/11/06 00:41:12;;;;;;;5.32;3.90;;;9.50;99.90;;;;;;4896303;29;20052;-81
2022/11/06 00:43:38;;;;;;;7.15;4.40;;;9.70;99.90;;;;;;4880138;29;20135;-81
2022/11/06 00:46:08;;;;;;;;;;;9.90;99.90;;;;;;4896857;29;20052;-81
2022/11/06 00:48:36;;;;;;;7.00;4.95;;;9.80;99.90;;;;;;4912195;29;20013;-81
2022/11/06 00:51:32;;;;;;;8.35;5.05;;;9.90;99.90;;;;;;4880834;29;20058;-82
2022/11/06 00:54:01;;;;;;;8.48;4.88;;;9.60;99.90;;;;;;4896336;29;20145;-82
2022/11/06 00:56:27;;;;;;;6.43;4.18;;;9.30;99.90;;;;;;4895977;29;20059;-82
2022/11/06 00:58:53;;;;;;;;;;;9.20;99.90;;;;;;4895042;29;20044;-81
2022/11/06 01:01:22;;;;;;;8.50;5.50;;;9.50;99.90;;;;;;4911230;29;19923;-82
2022/11/06 01:03:56;;;;;;;9.32;5.80;;;9.20;99.90;;;;;;4896794;29;20080;-82
2022/11/06 01:06:25;;;;;;;9.85;5.57;;;9.90;99.90;;;;;;4895917;29;20047;-81
2022/11/06 01:08:52;;;;;;;9.55;6.50;;;9.10;99.90;;;;;;4880454;29;20524;-82
2022/11/06 01:11:23;;;;;;;10.93;5.72;;;9.20;99.90;;;;;;4879506;29;20650;-82
2022/11/06 01:13:51;;;;;;;9.27;5.78;;;9.60;99.90;;;;;;4911370;29;20041;-82
2022/11/06 01:16:18;;;;;;;7.95;5.47;;;9.40;99.90;;;;;;4879960;29;20063;-81
2022/11/06 01:18:44;;;;;;;6.95;5.55;;;9.40;99.90;;;;;;4895634;29;20144;-81
2022/11/06 01:21:16;;;;;;;8.48;5.35;;;9.80;99.90;;;;;;4895475;29;20123;-82
2022/11/06 01:23:42;;;;;;;7.35;5.57;;;9.00;99.90;;;;;;4895780;29;20044;-81
2022/11/06 01:26:10;;;;;;;8.15;5.78;;;9.10;99.90;;;;;;4894579;29;20967;-81
2022/11/06 01:28:37;;;;;;;9.25;5.85;;;9.10;99.90;;;;;;4895540;29;20044;-81
2022/11/06 01:31:12;;;;;;;8.27;5.60;;;9.00;99.90;;;;;;4895324;29;20067;-81
2022/11/06 01:33:38;;;;;;;7.05;5.43;;;9.30;99.90;;;;;;4895387;29;20100;-81
2022/11/06 01:36:06;;;;;;;8.05;5.75;;;9.70;99.90;;;;;;4879004;29;20044;-81
2022/11/06 01:38:32;;;;;;;9.63;6.18;;;9.10;99.90;;;;;;4896191;29;20048;-81
2022/11/06 01:40:58;;;;;;;10.52;6.10;;;9.60;99.90;;;;;;4894606;29;20349;-80
2022/11/06 01:43:45;;;;;;;7.18;5.70;;;9.00;99.90;;;;;;4895404;29;20394;-81
2022/11/06 01:46:11;;;;;;;8.10;5.60;;;9.60;99.90;;;;;;4879390;29;20082;-81
2022/11/06 01:48:38;;;;;;;9.40;6.28;;;9.00;99.90;;;;;;4895092;29;20072;-81
2022/11/06 01:51:05;;;;;;;8.48;5.40;;;9.00;99.90;;;;;;4895414;29;20048;-81
2022/11/06 01:53:31;;;;;;;9.30;6.55;;;9.60;99.90;;;;;;4879634;29;20448;-81
2022/11/06 01:56:00;;;;;;;9.65;6.30;;;9.00;99.90;;;;;;4879231;29;20040;-81
2022/11/06 01:58:29;;;;;;;8.50;6.05;;;8.90;99.90;;;;;;4895228;29;20052;-81
2022/11/06 02:00:55;;;;;;;9.27;6.50;;;9.60;99.90;;;;;;4895080;29;20048;-80
2022/11/06 02:03:21;;;;;;;7.30;5.35;;;8.90;99.90;;;;;;4894256;29;20074;-80
2022/11/06 02:05:47;;;;;;;9.02;6.07;;;9.60;99.90;;;;;;4894832;29;20052;-81
2022/11/06 02:08:16;;;;;;;7.45;5.90;;;9.00;99.90;;;;;;4894448;29;20048;-81
2022/11/06 02:10:43;;;;;;;9.18;6.05;;;8.80;99.90;;;;;;4894041;29;20051;-81
2022/11/06 02:13:32;;;;;;;9.85;6.32;;;9.40;99.90;;;;;;4894922;29;20388;-81
2022/11/06 02:16:01;;;;;;;8.95;6.10;;;8.80;99.90;;;;;;4878916;29;20047;-81
2022/11/06 02:19:02;;;;;;;10.55;6.75;;;9.60;99.90;;;;;;4894995;29;20370;-81
2022/11/06 02:22:15;;;;;;;8.45;6.63;;;9.40;99.90;;;;;;4863535;29;20049;-80
2022/11/06 02:24:55;;;;;;;7.10;5.25;;;9.70;99.90;;;;;;4879127;29;20087;-81
2022/11/06 02:27:27;;;;;;;7.80;5.78;;;8.90;99.90;;;;;;4895825;29;20059;-81
2022/11/06 02:29:58;;;;;;;6.40;5.47;;;8.70;99.90;;;;;;4895552;29;20128;-81
2022/11/06 02:32:27;;;;;;;9.05;6.00;;;9.00;99.90;;;;;;4880863;29;20092;-81
2022/11/06 02:34:55;;;;;;;7.88;5.70;;;8.80;99.90;;;;;;4895457;29;20052;-81
2022/11/06 02:37:28;;;;;;;9.80;5.60;;;8.80;99.90;;;;;;4894602;29;20084;-81
2022/11/06 02:39:58;;;;;;;8.73;6.80;;;9.70;99.90;;;;;;4911374;29;20103;-80
2022/11/06 02:42:27;;;;;;;9.25;6.22;;;9.60;99.90;;;;;;4895086;29;20136;-82
2022/11/06 02:44:56;;;;;;;7.65;5.05;;;9.00;99.90;;;;;;4895338;29;20056;-81
2022/11/06 02:47:24;;;;;;;8.35;6.25;;;9.70;99.90;;;;;;4895237;29;20060;-81
2022/11/06 02:49:57;;;;;;;8.32;6.18;;;9.60;99.90;;;;;;4895432;29;20493;-82
2022/11/06 02:52:40;;;;;;;6.50;5.47;;;9.70;99.90;;;;;;4879229;29;20079;-82
2022/11/06 02:55:30;;;;;;;6.38;5.30;;;8.70;99.90;;;;;;4894985;29;20127;-82
2022/11/06 02:58:05;;;;;;;7.85;5.60;;;9.70;99.90;;;;;;4891683;29;20626;-81
2022/11/06 03:00:32;;;;;;;8.70;5.70;;;9.70;99.90;;;;;;4877477;29;20426;-75
2022/11/06 03:03:00;;;;;;;8.07;6.15;;;8.90;99.90;;;;;;4876024;29;20070;-74
2022/11/06 03:05:33;;;;;;;8.77;5.65;;;8.80;99.90;;;;;;4888793;29;20048;-75
2022/11/06 03:08:33;;;;;;;7.35;5.93;;;9.60;99.90;;;;;;4894595;29;20500;-75
2022/11/06 03:11:19;;;;;;;8.38;6.90;;;9.70;99.90;;;;;;4894909;29;20059;-75
2022/11/06 03:14:18;;;;;;;6.57;5.75;;;8.80;99.90;;;;;;4893831;29;20151;-75
2022/11/06 03:17:04;;;;;;;7.38;5.60;;;9.10;99.90;;;;;;4894052;29;20040;-75
2022/11/06 03:19:56;;;;;;;5.70;4.97;;;8.90;99.90;;;;;;4877455;29;20045;-74
2022/11/06 03:23:00;;;;;;;6.47;5.07;;;9.70;99.90;;;;;;4889475;29;20063;-74
2022/11/06 03:25:34;;;;;;;6.13;4.80;;;9.20;99.90;;;;;;4874910;29;20136;-76
2022/11/06 03:28:09;;;;;;;7.45;5.07;;;9.80;99.90;;;;;;4896783;29;20040;-75
2022/11/06 03:30:46;;;;;;;6.63;5.60;;;9.50;99.90;;;;;;4912805;29;20045;-82
2022/11/06 03:33:19;;;;;;;8.57;5.28;;;8.90;99.90;;;;;;4898129;29;20580;-81
2022/11/06 03:35:49;;;;;;;6.97;5.55;;;9.90;99.90;;;;;;4898388;29;20055;-82
2022/11/06 03:38:19;;;;;;;5.65;5.05;;;9.80;99.90;;;;;;4914173;29;20057;-79
2022/11/06 03:40:50;;;;;;;6.22;4.97;;;8.80;99.90;;;;;;4899430;29;20056;-74
2022/11/06 03:43:20;;;;;;;7.97;5.70;;;8.90;99.90;;;;;;4896318;29;20128;-77
2022/11/06 03:45:48;;;;;;;7.22;5.20;;;9.70;99.90;;;;;;4896779;29;20049;-76
2022/11/06 03:48:22;;;;;;;7.03;5.05;;;8.80;99.90;;;;;;4897242;29;20440;-76
2022/11/06 03:51:28;;;;;;;8.90;6.00;;;9.60;99.90;;;;;;4897269;29;20088;-76
2022/11/06 03:54:04;;;;;;;6.43;4.32;;;8.90;99.90;;;;;;4861493;29;20135;-76
2022/11/06 03:56:38;;;;;;;9.27;5.93;;;9.10;99.90;;;;;;4860926;29;20053;-75
2022/11/06 03:59:06;;;;;;;6.75;5.22;;;8.90;99.90;;;;;;4881433;29;20071;-75
2022/11/06 04:01:35;;;;;;;7.20;5.70;;;8.90;99.90;;;;;;4881400;29;20086;-75
2022/11/06 04:04:18;;;;;;;7.20;5.65;;;9.90;99.90;;;;;;4896821;29;20055;-76
2022/11/06 04:07:03;;;;;;;7.10;5.30;;;8.90;99.90;;;;;;4881414;29;20040;-76
2022/11/06 04:15:09;;;;;;;7.63;5.68;;;9.90;99.90;;;;;;4896799;29;20045;-76
2022/11/06 04:17:38;;;;;;;7.75;5.30;;;9.90;99.90;;;;;;4896534;29;20056;-77
2022/11/06 04:20:08;;;;;;;7.63;5.57;;;9.10;99.90;;;;;;4896262;29;20512;-76
2022/11/06 04:22:54;;;;;;;5.55;4.95;;;9.10;99.90;;;;;;4881713;29;20037;-75
2022/11/06 04:28:42;;;;;;;6.13;5.20;;;9.90;99.90;;;;;;4896332;29;20060;-76
2022/11/06 04:31:16;;;;;;;7.53;4.80;;;9.20;99.90;;;;;;4880752;29;20049;-76
2022/11/06 04:34:00;;;;;;;6.32;4.95;;;9.90;99.90;;;;;;4896307;29;20048;-75
2022/11/06 04:36:59;;;;;;;6.93;4.82;;;8.90;99.90;;;;;;4910672;29;20083;-75
2022/11/06 04:39:43;;;;;;;8.43;5.50;;;8.90;99.90;;;;;;4892969;29;20063;-75
2022/11/06 04:42:39;;;;;;;8.70;5.65;;;9.90;99.90;;;;;;4912135;29;20060;-76
2022/11/06 04:45:12;;;;;;;5.93;4.82;;;10.00;99.90;;;;;;4877361;29;20068;-75
2022/11/06 04:47:38;;;;;;;7.32;5.25;;;9.00;99.90;;;;;;4896154;29;20055;-76
2022/11/06 04:50:06;;;;;;;6.80;4.80;;;9.90;99.90;;;;;;4896053;29;20048;-76
2022/11/06 04:52:34;;;;;;;6.03;4.50;;;9.90;99.90;;;;;;4896037;29;20044;-75
2022/11/06 04:54:59;;;;;;;7.30;4.43;;;9.10;99.90;;;;;;4895091;29;20037;-76
2022/11/06 04:57:25;;;;;;;5.45;4.30;;;9.90;99.90;;;;;;4894417;29;20053;-75
2022/11/06 04:59:51;;;;;;;8.00;5.13;;;9.20;99.90;;;;;;4895211;29;20395;-75
2022/11/06 05:02:17;;;;;;;6.72;4.95;;;9.00;99.90;;;;;;4880023;29;20045;-75
2022/11/06 05:04:44;;;;;;;7.95;5.13;;;9.00;99.90;;;;;;4911764;29;20059;-75
2022/11/06 05:07:14;;;;;;;6.10;4.30;;;10.00;99.90;;;;;;4894611;29;20404;-75
2022/11/06 05:09:41;;;;;;;8.15;4.70;;;10.00;99.90;;;;;;4911348;29;20523;-75
2022/11/06 05:12:07;;;;;;;7.18;4.72;;;9.90;99.90;;;;;;4911240;29;20063;-75
2022/11/06 05:14:33;;;;;;;7.18;4.55;;;10.00;99.90;;;;;;4895320;29;20045;-76
2022/11/06 05:16:59;;;;;;;6.35;4.38;;;10.00;99.90;;;;;;4895452;29;20052;-77
2022/11/06 05:19:25;;;;;;;6.85;4.95;;;9.70;99.90;;;;;;4895394;29;20914;-75
2022/11/06 05:24:35;;;;;;;6.80;4.45;;;9.60;99.90;;;;;;4895385;29;20048;-75
2022/11/06 05:27:00;;;;;;;5.05;3.85;;;9.00;99.90;;;;;;4895609;29;20489;-75
2022/11/06 05:29:26;;;;;;;6.45;4.20;;;9.80;99.90;;;;;;4895519;29;20040;-76
2022/11/06 05:31:52;;;;;;;7.05;4.70;;;9.70;99.90;;;;;;4895215;29;20060;-77
2022/11/06 05:34:18;;;;;;;8.02;4.40;;;9.20;99.90;;;;;;4910908;29;20528;-76
2022/11/06 05:36:44;;;;;;;6.57;4.30;;;9.80;99.90;;;;;;4863400;29;20061;-77
2022/11/06 05:39:09;;;;;;;7.60;4.43;;;9.90;99.90;;;;;;4895160;29;20500;-76
2022/11/06 05:41:35;;;;;;;5.88;3.90;;;9.80;99.90;;;;;;4882234;29;20063;-76
2022/11/06 05:44:01;;;;;;;7.22;4.70;;;9.00;99.90;;;;;;4913794;29;20052;-77
2022/11/06 05:46:27;;;;;;;6.93;4.00;;;9.70;99.90;;;;;;4882689;29;20091;-75
2022/11/06 05:48:52;;;;;;;4.10;3.60;;;9.10;99.90;;;;;;4897907;29;20067;-76
2022/11/06 05:51:19;;;;;;;6.18;4.40;;;9.40;99.90;;;;;;4881535;29;20492;-76
2022/11/06 05:53:44;;;;;;;;;;;9.40;99.90;;;;;;4898587;29;20083;-77
2022/11/06 05:56:10;;;;;;;4.85;3.70;;;8.90;99.90;;;;;;4882720;29;20324;-77
2022/11/06 05:58:36;;;;;;;5.50;3.88;;;9.00;99.90;;;;;;4878003;29;20163;-75
2022/11/06 06:01:01;;;;;;;4.43;3.53;;;9.00;99.90;;;;;;4879178;29;20481;-77
2022/11/06 06:03:27;;;;;;;7.65;3.90;;;9.70;99.90;;;;;;4895071;29;20048;-77
2022/11/06 06:05:53;;;;;;;7.50;4.18;;;9.10;99.90;;;;;;4880698;29;20090;-75
2022/11/06 06:08:19;;;;;;;5.20;3.58;;;9.00;99.90;;;;;;4897862;29;20040;-75
2022/11/06 06:10:45;;;;;;;7.47;4.20;;;9.10;99.90;;;;;;4897552;29;20048;-77
2022/11/06 06:13:12;;;;;;;4.32;3.28;;;9.80;99.90;;;;;;4897950;29;20051;-76
2022/11/06 06:15:39;;;;;;;5.70;3.40;;;9.50;99.90;;;;;;4897346;29;20044;-76
2022/11/06 06:18:06;;;;;;;7.03;3.83;;;9.70;99.90;;;;;;4881357;29;20060;-77
2022/11/06 06:20:32;;;;;;;7.53;4.07;;;9.10;99.90;;;;;;4897848;29;20441;-75
2022/11/06 06:22:58;;;;;;;7.88;5.07;;;9.10;99.90;;;;;;4882520;29;20147;-76
2022/11/06 06:25:25;;;;;;;5.03;3.55;;;9.70;99.90;;;;;;4896566;29;20416;-77
2022/11/06 06:27:51;;;;;;;6.80;3.90;;;9.60;99.90;;;;;;4913380;29;20058;-76
2022/11/06 06:30:17;;;;;;;7.53;3.85;;;9.00;99.90;;;;;;4897641;29;20138;-75
2022/11/06 06:32:42;;;;;;;4.32;3.05;;;9.10;99.90;;;;;;4896253;29;20060;-76
2022/11/06 06:35:08;;;;;;;4.97;3.42;;;9.30;99.90;;;;;;4898107;29;20128;-81
2022/11/06 06:37:34;;;;;;;6.65;3.78;;;9.80;99.90;;;;;;4898715;29;20044;-82
2022/11/06 06:40:00;;;;;;;6.70;3.75;;;8.90;99.90;;;;;;4896789;29;20488;-80
2022/11/06 06:42:29;;;;;;;8.13;3.80;;;9.00;99.90;;;;;;4898063;29;20060;-81
2022/11/06 06:44:55;;;;;;;6.53;3.80;;;9.00;99.90;;;;;;4898927;29;20083;-81
2022/11/06 06:47:21;;;;;;;6.78;3.90;;;8.90;99.90;;;;;;4898070;29;20095;-81
2022/11/06 06:49:46;;;;;;;6.25;3.28;;;9.80;99.90;;;;;;4898383;29;20055;-76
2022/11/06 06:52:12;;;;;;;5.97;3.30;;;9.70;99.90;;;;;;4897179;29;20071;-76
2022/11/06 06:54:38;;;;;;;4.95;3.00;;;9.70;99.90;;;;;;4912645;29;20496;-76
2022/11/06 06:57:06;;;;;;;5.80;3.13;;;8.90;99.90;;;;;;4897697;29;20048;-77
2022/11/06 06:59:32;;;;;;;4.43;2.80;;;9.80;99.90;;;;;;4898184;29;20044;-76
2022/11/06 07:01:57;;;;;;;5.00;3.10;;;8.90;99.90;;;;;;4869877;29;20074;-77
2022/11/06 07:04:23;;;;;;;5.68;3.30;;;9.40;99.90;;;;;;4901149;29;20042;-76
2022/11/06 07:06:51;;;;;;;5.47;3.08;;;9.00;99.90;;;;;;4901461;29;20388;-77
2022/11/06 07:09:17;;;;;;;5.47;2.80;;;9.50;99.90;;;;;;4885506;29;20040;-77
2022/11/06 07:11:43;;;;;;;5.72;3.00;;;9.00;99.90;;;;;;4901248;29;20180;-76
2022/11/06 07:14:09;;;;;;;5.90;2.80;;;9.60;99.90;;;;;;4870355;29;20404;-75
2022/11/06 07:16:35;;;;;;;6.78;2.90;;;9.80;99.90;;;;;;4885355;29;20083;-77
2022/11/06 07:19:01;;;;;;;3.50;2.20;;;9.10;99.90;;;;;;4901641;29;20488;-74
2022/11/06 07:21:27;;;;;;;3.63;2.25;;;9.20;99.90;;;;;;4886336;29;20047;-76
2022/11/06 07:23:53;;;;;;;9.27;3.30;;;9.10;99.90;;;;;;4918386;29;20118;-79
2022/11/06 07:26:18;;;;;;;5.68;2.63;;;9.20;99.90;;;;;;4901969;29;20195;-77
2022/11/06 07:28:44;;;;;;;6.05;2.92;;;9.30;99.90;;;;;;4902269;29;20055;-76
2022/11/06 07:31:13;;;;;;;6.47;3.08;;;9.10;99.90;;;;;;4900996;29;20044;-75
2022/11/06 07:33:39;;;;;;;5.15;3.35;;;9.20;99.90;;;;;;4870747;29;20051;-76
2022/11/06 07:36:08;;;;;;;4.63;2.67;;;9.20;99.90;;;;;;4869637;29;20040;-76
2022/11/06 07:38:35;;;;;;;9.13;2.90;;;10.00;99.90;;;;;;4916397;29;20408;-76
2022/11/06 07:41:05;;;;;;;5.10;2.53;;;10.00;99.90;;;;;;4900717;29;20127;-76
2022/11/06 07:43:31;;;;;;;4.57;2.45;;;10.10;99.90;;;;;;4885339;29;20071;-75
2022/11/06 07:46:02;;;;;;;7.93;2.70;;;9.40;99.90;;;;;;4882902;29;20041;-76
2022/11/06 07:48:28;;;;;;;6.53;3.03;;;9.40;99.90;;;;;;4900522;29;20048;-75
2022/11/06 07:50:55;;;;;;;3.97;2.28;;;9.90;99.90;;;;;;4900270;29;20633;-75
2022/11/06 07:53:21;;;;;;;5.35;2.22;;;10.10;99.90;;;;;;4915630;29;20058;-75
2022/11/06 07:55:51;;;;;;;4.15;2.10;;;9.30;99.90;;;;;;4900745;29;20160;-76
2022/11/06 07:58:18;;;;;;;4.40;2.08;;;9.20;99.90;;;;;;4884897;29;20040;-76
2022/11/06 08:00:51;;;;;;;5.97;2.10;;;9.70;99.90;;;;;;4881173;29;20049;-76
2022/11/06 08:03:18;;;;;;;8.32;2.40;;;9.80;99.90;;;;;;4881953;29;20039;-75
2022/11/06 08:05:44;;;;;;;6.57;2.75;;;9.30;99.90;;;;;;4879780;29;20070;-76
2022/11/06 08:08:10;;;;;;;4.47;2.17;;;9.50;99.90;;;;;;4881585;29;20065;-76
2022/11/06 08:10:39;;;;;;;3.92;2.10;;;9.40;99.90;;;;;;4899587;29;20051;-75
2022/11/06 08:13:09;;;;;;;7.05;2.70;;;9.80;99.90;;;;;;4915660;29;20111;-75
2022/11/06 08:15:37;;;;;;;4.80;2.00;;;9.30;99.90;;;;;;4900165;29;20044;-82
2022/11/06 08:18:04;;;;;;;5.43;2.67;;;9.40;99.90;;;;;;4901523;29;20044;-82
2022/11/06 08:20:29;;;;;;;4.72;2.15;;;9.40;99.90;;;;;;4900700;29;20076;-81
2022/11/06 08:23:02;;;;;;;5.35;2.53;;;9.30;99.90;;;;;;4901546;29;20075;-81
2022/11/06 08:25:29;;;;;;;4.95;2.45;;;9.30;99.90;;;;;;4901844;29;20056;-80
2022/11/06 08:27:56;;;;;;;4.20;2.05;;;10.20;99.90;;;;;;4901113;29;20059;-81
2022/11/06 08:30:22;;;;;;;3.72;1.90;;;10.10;99.90;;;;;;4916369;29;20408;-82
2022/11/06 08:32:48;;;;;;;4.55;2.10;;;9.30;99.90;;;;;;4869753;29;20040;-81
2022/11/06 08:35:14;;;;;;;4.75;2.40;;;9.70;99.90;;;;;;4900124;29;20115;-81
2022/11/06 08:37:39;;;;;;;6.32;2.00;;;9.50;99.90;;;;;;4901782;29;20155;-80
2022/11/06 08:40:06;;;;;;;5.32;2.20;;;10.20;99.90;;;;;;4918726;29;20488;-82
2022/11/06 08:42:32;;;;;;;3.90;1.85;;;9.40;99.90;;;;;;4900990;29;20048;-76
2022/11/06 08:44:57;;;;;;;4.07;2.30;;;10.10;99.90;;;;;;4899665;29;20055;-75
2022/11/06 08:47:23;;;;;;;4.80;2.60;;;9.70;99.90;;;;;;4900587;29;20055;-81
2022/11/06 08:49:49;;;;;;;6.68;2.85;;;9.70;99.90;;;;;;4901467;29;20051;-81
2022/11/06 08:52:15;;;;;;;7.15;2.90;;;9.50;99.90;;;;;;4885617;29;20401;-81
2022/11/06 08:54:41;;;;;;;5.18;2.50;;;10.10;99.90;;;;;;4900136;29;20154;-82
2022/11/06 08:57:06;;;;;;;7.40;2.30;;;10.00;99.90;;;;;;4885340;29;20059;-81
2022/11/06 08:59:32;;;;;;;5.72;2.30;;;9.80;99.90;;;;;;4885325;29;20050;-82
2022/11/06 09:01:59;;;;;;;4.93;2.45;;;9.80;99.90;;;;;;4899387;29;20611;-81
2022/11/06 09:04:25;;;;;;;3.88;2.00;;;9.70;99.90;;;;;;4900646;29;20056;-82
2022/11/06 09:06:51;;;;;;;3.08;1.70;;;10.00;99.90;;;;;;4900988;29;20138;-81
2022/11/06 09:09:17;;;;;;;2.10;1.60;;;10.60;99.90;;;;;;4899716;29;20095;-82
2022/11/06 09:11:43;;;;;;;3.78;2.05;;;9.90;99.90;;;;;;4900497;29;20138;-81
2022/11/06 09:14:09;;;;;;;4.40;1.98;;;10.70;99.90;;;;;;4900842;29;20051;-82
2022/11/06 09:16:34;;;;;;;3.33;2.03;;;10.20;99.90;;;;;;4901458;29;20055;-81
2022/11/06 09:19:00;;;;;;;5.05;1.77;;;10.20;99.90;;;;;;4901327;29;20052;-83
2022/11/06 09:21:26;;;;;;;5.55;1.95;;;10.20;99.90;;;;;;4900397;29;20472;-82
2022/11/06 09:23:51;;;;;;;4.68;1.90;;;10.90;99.90;;;;;;4898752;29;20048;-81
2022/11/06 09:26:17;;;;;;;4.07;2.05;;;10.70;99.90;;;;;;4882072;29;20048;-77
2022/11/06 09:28:43;;;;;;;4.63;2.05;;;11.00;99.90;;;;;;4895777;29;20108;-76
2022/11/06 09:31:09;;;;;;;6.10;2.13;;;10.60;99.90;;;;;;4880235;29;20055;-76
2022/11/06 09:33:35;;;;;;;7.55;2.38;;;10.70;99.90;;;;;;4865025;29;20143;-76
2022/11/06 09:36:04;;;;;;;4.07;1.88;;;10.30;99.90;;;;;;4894943;29;20071;-76
2022/11/06 09:38:31;;;;;;;4.60;2.08;;;11.00;99.90;;;;;;4898068;29;20134;-76
2022/11/06 09:40:57;;;;;;;;;;;11.00;99.90;;;;;;4897511;29;20508;-76
2022/11/06 09:43:32;;;;;;;3.72;1.85;;;10.90;99.90;;;;;;4883076;29;19950;-75
2022/11/06 09:46:19;;;;;;;3.53;1.80;;;10.40;99.90;;;;;;4880020;29;20063;-75
2022/11/06 09:48:49;;;;;;;3.47;1.70;;;11.10;99.90;;;;;;4864809;29;20044;-76
2022/11/06 09:51:21;;;;;;;8.52;2.30;;;11.10;99.90;;;;;;4880504;29;20087;-76
2022/11/06 09:53:57;;;;;;;6.25;2.20;;;10.50;99.90;;;;;;4905494;29;20090;-74
2022/11/06 09:56:27;;;;;;;3.83;1.90;;;11.10;99.90;;;;;;4897203;29;20179;-76
2022/11/06 09:58:54;;;;;;;3.78;1.70;;;10.60;99.90;;;;;;4882767;29;20054;-77
2022/11/06 10:01:34;;;;;;;3.67;1.60;;;11.20;99.90;;;;;;4898851;29;20060;-76
2022/11/06 10:04:02;;;;;;;5.00;2.00;;;10.60;99.90;;;;;;4883340;29;20056;-75
2022/11/06 10:06:28;;;;;;;4.50;1.75;;;11.20;99.90;;;;;;4882954;29;20237;-76
2022/11/06 10:09:02;;;;;;;4.28;1.70;;;11.10;99.90;;;;;;4867787;29;20044;-76
2022/11/06 10:12:01;;;;;;;3.35;1.60;;;10.60;99.90;;;;;;4897249;29;20496;-76
2022/11/06 10:14:39;;;;;;;3.88;1.90;;;11.00;99.90;;;;;;4882267;29;20107;-77
2022/11/06 10:17:32;;;;;;;4.53;1.75;;;10.70;99.90;;;;;;4898318;29;20120;-76
2022/11/06 10:20:19;;;;;;;4.97;1.80;;;11.30;99.90;;;;;;4881480;29;20054;-77
2022/11/06 10:23:03;;;;;;;5.45;1.92;;;10.80;99.90;;;;;;4898472;29;20105;-76
2022/11/06 10:26:10;;;;;;;5.25;1.80;;;11.00;99.90;;;;;;4896670;29;20056;-75
2022/11/06 10:29:10;;;;;;;5.50;1.95;;;11.30;99.90;;;;;;4897843;29;20129;-74
2022/11/06 10:31:42;;;;;;;3.42;2.10;;;11.10;99.90;;;;;;4896893;29;20054;-75
2022/11/06 10:34:16;;;;;;;3.65;1.77;;;11.30;99.90;;;;;;4899492;29;20044;-76
2022/11/06 10:36:53;;;;;;;5.97;1.85;;;11.50;99.90;;;;;;4901585;29;20555;-75
2022/11/06 10:39:21;;;;;;;;;;;11.40;99.90;;;;;;4902179;29;20099;-75
2022/11/06 10:41:52;;;;;;;4.10;1.70;;;11.00;99.90;;;;;;4900982;29;20005;-74
2022/11/06 10:44:21;;;;;;;3.33;1.20;;;11.10;99.90;;;;;;4901493;29;20110;-75
2022/11/06 10:47:15;;;;;;;3.88;1.50;;;11.20;99.90;;;;;;4886290;29;20437;-74
2022/11/06 10:49:49;;;;;;;6.32;1.92;;;11.30;99.90;;;;;;4878963;29;20494;-76
2022/11/06 10:52:33;;;;;;;5.00;2.00;;;11.70;99.90;;;;;;4885881;29;20068;-75
2022/11/06 10:54:59;;;;;;;5.40;2.10;;;11.30;99.90;;;;;;4900780;29;20044;-75
2022/11/06 10:57:26;;;;;;;4.10;1.70;;;11.40;99.90;;;;;;4916692;29;20096;-74
2022/11/06 10:59:52;;;;;;;5.53;1.70;;;11.70;99.90;;;;;;4901304;29;20048;-74
2022/11/06 11:02:29;;;;;;;4.38;1.40;;;11.80;99.90;;;;;;4901288;29;20052;-75
2022/11/06 11:04:54;;;;;;;;;;;11.70;99.90;;;;;;4918517;29;20044;-74
2022/11/06 11:07:21;;;;;;;6.15;1.83;;;11.40;99.90;;;;;;4917987;29;19966;-75
2022/11/06 11:09:49;;;;;;;4.90;1.70;;;11.80;99.90;;;;;;4901180;29;20079;-75
2022/11/06 11:12:25;;;;;;;5.30;1.65;;;11.80;99.90;;;;;;4900430;29;20115;-75
2022/11/06 11:15:31;;;;;;;3.45;1.30;;;11.80;99.90;;;;;;4901054;29;20056;-75
2022/11/06 11:18:12;;;;;;;5.43;1.60;;;11.40;99.90;;;;;;4900604;29;20059;-75
2022/11/06 11:21:24;;;;;;;3.45;1.95;;;11.80;99.90;;;;;;4900479;29;20063;-75
2022/11/06 11:24:09;;;;;;;3.50;1.40;;;11.90;99.90;;;;;;4879697;29;20180;-75
2022/11/06 11:26:47;;;;;;;4.97;1.58;;;11.30;99.90;;;;;;4900797;29;20048;-74
2022/11/06 11:29:22;;;;;;;2.63;1.48;;;10.90;99.90;;;;;;4899729;29;20452;-74
2022/11/06 11:31:58;;;;;;;3.28;1.58;;;11.20;99.90;;;;;;4900154;29;20052;-81
2022/11/06 11:34:30;;;;;;;4.35;1.63;;;11.10;99.90;;;;;;4901403;29;20090;-80
2022/11/06 11:37:04;;;;;;;5.65;1.70;;;10.70;99.90;;;;;;4901880;29;20100;-82
2022/11/06 11:39:43;;;;;;;4.63;2.33;;;11.00;99.90;;;;;;4901941;29;20135;-81
2022/11/06 11:42:28;;;;;;;3.55;1.45;;;10.70;99.90;;;;;;4901339;29;20055;-81
2022/11/06 11:45:10;;;;;;;2.90;1.70;;;11.60;99.90;;;;;;4901363;29;20052;-82
2022/11/06 11:47:37;;;;;;;4.45;1.35;;;11.60;99.90;;;;;;4917577;29;20044;-81
2022/11/06 11:50:18;;;;;;;6.45;2.30;;;11.20;99.90;;;;;;4898144;29;20079;-79
2022/11/06 11:52:51;;;;;;;2.80;1.50;;;11.30;99.90;;;;;;4895110;29;20044;-81
2022/11/06 11:55:20;;;;;;;2.13;1.27;;;11.40;99.90;;;;;;4900392;29;20508;-82
2022/11/06 11:57:49;;;;;;;3.72;1.67;;;10.70;99.90;;;;;;4897851;29;20083;-83
2022/11/06 12:00:19;;;;;;;2.72;1.40;;;11.50;99.90;;;;;;4884781;29;20040;-80
2022/11/06 12:03:06;;;;;;;4.18;1.55;;;11.70;99.90;;;;;;4895380;29;20044;-80
2022/11/06 12:05:38;;;;;;;3.37;1.30;;;11.40;99.90;;;;;;4882793;29;20056;-80
2022/11/06 12:08:11;;;;;;;4.18;1.40;;;10.80;99.90;;;;;;4912354;29;20075;-81
2022/11/06 12:10:40;;;;;;;4.32;1.65;;;11.70;99.90;;;;;;4897232;29;20436;-81
2022/11/06 12:13:26;;;;;;;4.72;1.73;;;10.80;99.90;;;;;;4886641;29;20040;-82
2022/11/06 12:16:10;;;;;;;3.20;1.60;;;10.90;99.90;;;;;;4884445;29;20063;-81
2022/11/06 12:18:44;;;;;;;4.13;1.70;;;10.80;99.90;;;;;;4897243;29;20139;-80
2022/11/06 12:21:31;;;;;;;2.83;1.38;;;11.20;99.90;;;;;;4899229;29;20040;-81
2022/11/06 12:23:59;;;;;;;3.95;1.50;;;11.10;99.90;;;;;;4873692;29;20044;-81
2022/11/06 12:26:36;;;;;;;3.35;1.48;;;11.80;99.90;;;;;;4900444;29;20043;-80
2022/11/06 12:29:23;;;;;;;4.85;1.75;;;11.30;99.90;;;;;;4899818;29;20051;-81
2022/11/06 12:32:04;;;;;;;3.65;1.50;;;11.70;99.90;;;;;;4900611;29;20044;-80
2022/11/06 12:34:36;;;;;;;4.05;1.52;;;11.90;99.90;;;;;;4913848;29;20400;-81
2022/11/06 12:37:17;;;;;;;3.70;1.60;;;12.00;99.90;;;;;;4896613;29;20059;-80
2022/11/06 12:39:46;;;;;;;5.50;1.85;;;12.20;99.90;;;;;;4896698;29;20044;-81
2022/11/06 12:42:13;;;;;;;4.68;2.00;;;12.20;99.90;;;;;;4884210;29;20048;-81
2022/11/06 12:44:39;;;;;;;4.85;1.92;;;12.30;99.90;;;;;;4901149;29;20871;-80
2022/11/06 12:47:41;;;;;;;3.58;1.50;;;12.40;99.90;;;;;;4895089;29;20040;-81
2022/11/06 12:50:21;;;;;;;5.07;1.90;;;12.40;99.90;;;;;;4893213;29;20051;-81
2022/11/06 12:52:49;;;;;;;4.00;1.33;;;12.40;99.90;;;;;;4897353;29;20044;-81
2022/11/06 12:55:28;;;;;;;3.22;1.40;;;12.30;99.90;;;;;;4903834;29;20048;-82
2022/11/06 12:58:15;;;;;;;4.72;1.70;;;12.30;99.90;;;;;;4917432;29;20052;-82
2022/11/06 13:00:59;;;;;;;4.95;1.48;;;12.10;99.90;;;;;;4904540;29;20266;-81
2022/11/06 13:03:41;;;;;;;4.00;1.23;;;12.00;99.90;;;;;;4883567;29;20123;-82
2022/11/06 13:06:35;;;;;;;3.70;1.30;;;12.00;99.90;;;;;;4884938;29;20714;-82
2022/11/06 13:09:04;;;;;;;4.20;1.42;;;12.20;99.90;;;;;;4881482;29;20610;-82
2022/11/06 13:11:41;;;;;;;5.20;1.20;;;12.20;99.90;;;;;;4898969;29;20111;-82
2022/11/06 13:14:16;;;;;;;2.35;1.02;;;11.90;99.90;;;;;;4899318;29;20567;-82
2022/11/06 13:17:00;;;;;;;3.10;1.30;;;12.00;99.90;;;;;;4898646;29;20066;-82
2022/11/06 13:19:59;;;;;;;3.70;1.08;;;12.20;99.90;;;;;;4894598;29;20044;-86
2022/11/06 13:22:45;;;;;;;3.47;1.20;;;12.00;99.90;;;;;;4910037;29;20036;-81
2022/11/06 13:25:24;;;;;;;3.20;1.20;;;12.20;99.90;;;;;;4876811;29;20056;-82
2022/11/06 13:28:25;;;;;;;4.53;1.20;;;11.90;99.90;;;;;;4879349;29;20115;-82
2022/11/06 13:30:52;;;;;;;2.28;1.20;;;11.90;99.90;;;;;;4866899;29;20048;-80
2022/11/06 13:33:31;;;;;;;3.42;1.30;;;12.20;99.90;;;;;;4882096;29;20155;-72
2022/11/06 13:35:59;;;;;;;2.85;1.00;;;11.90;99.90;;;;;;4897713;29;20062;-73